Time;durP1;ratioP1;P1;durP2;ratioP2;P2;SDS_P1;SDS_P2;PMS_P1;PMS_P2;Temp;Humidity;BMP_temperature;BMP_pressure;BME280_temperature;BME280_humidity;BME280_pressure;Samples;Min_cycle;Max_cycle;Signal;HPM_P1;HPM_P2
2022/10/01 00:00:25;;;;;;;9.98;5.93;;;;;;;;;;5011044;28;20054;-71
2022/10/01 00:02:53;;;;;;;7.80;5.78;;;;;;;;;;5011396;28;20058;-71
2022/10/01 00:05:20;;;;;;;6.43;5.50;;;;;;;;;;5011691;28;20051;-70
2022/10/01 00:07:46;;;;;;;7.40;5.85;;;;;;;;;;5011873;28;20058;-71
2022/10/01 00:10:14;;;;;;;6.72;5.45;;;;;;;;;;5011693;28;20117;-71
2022/10/01 00:12:45;;;;;;;6.70;5.68;;;;;;;;;;5010536;28;20054;-71
2022/10/01 00:15:12;;;;;;;7.50;6.32;;;;;;;;;;5010141;28;20105;-71
2022/10/01 00:17:39;;;;;;;6.57;5.75;;;;;;;;;;5005150;28;20059;-70
2022/10/01 00:20:06;;;;;;;8.85;6.10;;;;;;;;;;5011169;28;20058;-70
2022/10/01 00:22:39;;;;;;;7.25;5.10;;;;;;;;;;5010566;28;20066;-69
2022/10/01 00:25:06;;;;;;;8.80;5.78;;;;;;;;;;5009905;28;20549;-70
2022/10/01 00:27:32;;;;;;;6.82;5.95;;;;;;;;;;5011285;28;20096;-70
2022/10/01 00:29:58;;;;;;;6.40;5.60;;;;;;;;;;5008877;28;20950;-70
2022/10/01 00:32:24;;;;;;;7.13;5.65;;;;;;;;;;5010909;28;20058;-71
2022/10/01 00:34:52;;;;;;;6.47;5.40;;;;;;;;;;5012143;28;20165;-71
2022/10/01 00:37:21;;;;;;;10.70;5.85;;;;;;;;;;5010442;28;20051;-71
2022/10/01 00:39:47;;;;;;;7.20;5.18;;;;;;;;;;5010670;28;20109;-70
2022/10/01 00:42:23;;;;;;;6.90;6.00;;;;;;;;;;5011501;28;20065;-70
2022/10/01 00:44:50;;;;;;;8.52;5.70;;;;;;;;;;5011716;28;20050;-71
2022/10/01 00:47:16;;;;;;;9.38;6.00;;;;;;;;;;5004659;28;20058;-71
2022/10/01 00:49:43;;;;;;;6.78;4.90;;;;;;;;;;5010141;28;20065;-70
2022/10/01 00:52:12;;;;;;;11.32;5.97;;;;;;;;;;5011399;28;20113;-71
2022/10/01 00:54:48;;;;;;;7.00;5.38;;;;;;;;;;5010132;28;20062;-70
2022/10/01 00:57:14;;;;;;;;;;;;;;;;;;5009770;28;20051;-71
2022/10/01 00:59:40;;;;;;;;;;;;;;;;;;5009035;28;44087;-69
2022/10/01 01:02:06;;;;;;;;;;;;;;;;;;5006861;28;45641;-71
2022/10/01 01:04:32;;;;;;;7.70;5.35;;;;;;;;;;5009413;28;46102;-70
2022/10/01 01:07:01;;;;;;;6.00;5.35;;;;;;;;;;5011010;28;20058;-71
2022/10/01 01:09:35;;;;;;;7.53;4.88;;;;;;;;;;5010101;28;20474;-70
2022/10/01 01:12:20;;;;;;;10.48;6.20;;;;;;;;;;5009794;28;20106;-72
2022/10/01 01:15:06;;;;;;;7.18;4.55;;;;;;;;;;5001704;28;20632;-70
2022/10/01 01:17:35;;;;;;;7.15;4.68;;;;;;;;;;4998134;28;20058;-70
2022/10/01 01:20:20;;;;;;;5.18;4.53;;;;;;;;;;5010791;28;20054;-70
2022/10/01 01:22:49;;;;;;;7.87;5.10;;;;;;;;;;5010338;28;20085;-70
2022/10/01 01:25:19;;;;;;;4.95;4.43;;;;;;;;;;5010337;28;20266;-70
2022/10/01 01:28:04;;;;;;;8.27;4.75;;;;;;;;;;5010442;28;20114;-70
2022/10/01 01:30:31;;;;;;;5.55;4.38;;;;;;;;;;5008422;28;20054;-70
2022/10/01 01:33:03;;;;;;;5.40;4.53;;;;;;;;;;5013523;28;20051;-70
2022/10/01 01:35:32;;;;;;;4.90;4.15;;;;;;;;;;5000624;28;20054;-70
2022/10/01 01:38:04;;;;;;;4.50;3.90;;;;;;;;;;5013906;28;20051;-71
2022/10/01 01:40:33;;;;;;;4.20;3.58;;;;;;;;;;5013599;28;20113;-71
2022/10/01 01:43:02;;;;;;;10.10;3.70;;;;;;;;;;5013432;28;20407;-71
2022/10/01 01:45:29;;;;;;;3.85;3.47;;;;;;;;;;5013555;28;20438;-71
2022/10/01 01:47:57;;;;;;;5.90;3.67;;;;;;;;;;5013011;28;20062;-71
2022/10/01 01:50:24;;;;;;;4.47;3.50;;;;;;;;;;5013775;28;20112;-71
2022/10/01 01:52:53;;;;;;;5.20;3.60;;;;;;;;;;5012693;28;20470;-72
2022/10/01 01:55:22;;;;;;;5.55;3.85;;;;;;;;;;5011724;28;20058;-72
2022/10/01 01:57:48;;;;;;;5.22;3.65;;;;;;;;;;5012294;28;20058;-71
2022/10/01 02:00:15;;;;;;;3.45;3.15;;;;;;;;;;5012420;28;20058;-72
2022/10/01 02:02:44;;;;;;;4.18;3.08;;;;;;;;;;5013363;28;20109;-71
2022/10/01 02:05:12;;;;;;;4.03;3.55;;;;;;;;;;5012382;28;20141;-72
2022/10/01 02:07:42;;;;;;;3.88;3.13;;;;;;;;;;5013452;28;20054;-71
2022/10/01 02:10:14;;;;;;;4.18;2.72;;;;;;;;;;4997268;28;20112;-70
2022/10/01 02:13:00;;;;;;;4.07;2.85;;;;;;;;;;4999531;28;20055;-71
2022/10/01 02:15:35;;;;;;;2.60;2.40;;;;;;;;;;5012953;28;20054;-71
2022/10/01 02:18:06;;;;;;;3.30;2.60;;;;;;;;;;5013702;28;20058;-72
2022/10/01 02:20:46;;;;;;;4.40;2.97;;;;;;;;;;5013186;28;20050;-72
2022/10/01 02:23:18;;;;;;;3.67;2.55;;;;;;;;;;5012803;28;20059;-71
2022/10/01 02:25:47;;;;;;;3.28;2.45;;;;;;;;;;5012601;28;20059;-70
2022/10/01 02:28:15;;;;;;;4.47;2.55;;;;;;;;;;5012336;28;20089;-70
2022/10/01 02:30:45;;;;;;;2.30;2.10;;;;;;;;;;5012765;28;20054;-71
2022/10/01 02:33:13;;;;;;;2.47;2.20;;;;;;;;;;5013097;28;20545;-71
2022/10/01 02:35:42;;;;;;;2.70;2.50;;;;;;;;;;5012787;28;20054;-71
2022/10/01 02:38:09;;;;;;;4.30;2.17;;;;;;;;;;5014076;28;20054;-72
2022/10/01 02:40:37;;;;;;;2.42;1.80;;;;;;;;;;5011744;28;20119;-72
2022/10/01 02:43:09;;;;;;;2.55;1.90;;;;;;;;;;5013094;28;20533;-70
2022/10/01 02:45:37;;;;;;;2.13;2.00;;;;;;;;;;5012592;28;20098;-70
2022/10/01 02:48:06;;;;;;;2.45;2.10;;;;;;;;;;5012689;28;20113;-71
2022/10/01 02:50:39;;;;;;;1.75;1.65;;;;;;;;;;5012588;28;20054;-72
2022/10/01 02:53:08;;;;;;;1.80;1.60;;;;;;;;;;5011370;28;20487;-70
2022/10/01 02:55:36;;;;;;;3.22;1.95;;;;;;;;;;5005388;28;20054;-72
2022/10/01 02:58:02;;;;;;;2.03;1.83;;;;;;;;;;5012639;28;20058;-69
2022/10/01 03:00:29;;;;;;;2.20;2.00;;;;;;;;;;5010925;28;20054;-72
2022/10/01 03:02:55;;;;;;;2.13;1.90;;;;;;;;;;5012727;28;20058;-72
2022/10/01 03:05:22;;;;;;;1.73;1.60;;;;;;;;;;5012622;28;20058;-72
2022/10/01 03:07:48;;;;;;;2.20;2.00;;;;;;;;;;5011070;28;20109;-72
2022/10/01 03:10:15;;;;;;;4.03;1.98;;;;;;;;;;5012812;28;20509;-71
2022/10/01 03:12:42;;;;;;;2.15;2.05;;;;;;;;;;5013313;28;20053;-71
2022/10/01 03:15:09;;;;;;;2.00;1.90;;;;;;;;;;5012090;28;20058;-71
2022/10/01 03:17:36;;;;;;;2.42;2.22;;;;;;;;;;5005187;28;20058;-71
2022/10/01 03:20:03;;;;;;;2.30;2.10;;;;;;;;;;5011806;28;20046;-71
2022/10/01 03:22:29;;;;;;;2.88;2.17;;;;;;;;;;5011407;28;20058;-72
2022/10/01 03:24:56;;;;;;;3.75;2.70;;;;;;;;;;5012952;28;20058;-72
2022/10/01 03:27:22;;;;;;;2.78;2.42;;;;;;;;;;5012431;28;20501;-72
2022/10/01 03:29:48;;;;;;;2.63;2.42;;;;;;;;;;5010944;28;20105;-72
2022/10/01 03:32:14;;;;;;;2.72;2.50;;;;;;;;;;5010860;28;20055;-72
2022/10/01 03:34:41;;;;;;;2.80;2.60;;;;;;;;;;5012392;28;20495;-72
2022/10/01 03:37:07;;;;;;;3.00;2.80;;;;;;;;;;5011609;28;20062;-72
2022/10/01 03:39:33;;;;;;;3.00;2.70;;;;;;;;;;5011695;28;20054;-73
2022/10/01 03:42:00;;;;;;;2.88;2.65;;;;;;;;;;5011462;28;20470;-74
2022/10/01 03:44:27;;;;;;;3.35;2.92;;;;;;;;;;5012594;28;20154;-72
2022/10/01 03:46:53;;;;;;;3.80;2.88;;;;;;;;;;5010851;28;20526;-72
2022/10/01 03:49:20;;;;;;;3.35;3.05;;;;;;;;;;5012051;28;20108;-73
2022/10/01 03:51:46;;;;;;;3.72;3.25;;;;;;;;;;5010723;28;20050;-73
2022/10/01 03:54:12;;;;;;;3.70;3.40;;;;;;;;;;5012283;28;20513;-71
2022/10/01 03:56:41;;;;;;;4.05;3.67;;;;;;;;;;5010556;28;20109;-72
2022/10/01 03:59:08;;;;;;;4.72;4.32;;;;;;;;;;5011249;28;20490;-72
2022/10/01 04:01:34;;;;;;;4.90;3.90;;;;;;;;;;5010400;28;20105;-72
2022/10/01 04:04:02;;;;;;;4.95;4.03;;;;;;;;;;5011384;28;20061;-72
2022/10/01 04:06:29;;;;;;;5.65;3.97;;;;;;;;;;5011204;28;20057;-72
2022/10/01 04:08:55;;;;;;;4.70;4.20;;;;;;;;;;5012117;28;20065;-72
2022/10/01 04:11:22;;;;;;;4.70;4.30;;;;;;;;;;5003069;28;20110;-72
2022/10/01 04:13:48;;;;;;;4.78;4.38;;;;;;;;;;5005442;28;20494;-72
2022/10/01 04:16:14;;;;;;;4.93;4.45;;;;;;;;;;5007052;28;20113;-72
2022/10/01 04:18:41;;;;;;;5.10;4.60;;;;;;;;;;5011772;28;20101;-71
2022/10/01 04:21:07;;;;;;;5.00;4.32;;;;;;;;;;5010191;28;20055;-72
2022/10/01 04:23:34;;;;;;;5.47;4.97;;;;;;;;;;5011455;28;20058;-72
2022/10/01 04:26:01;;;;;;;5.70;4.85;;;;;;;;;;5010299;28;20058;-72
2022/10/01 04:28:28;;;;;;;5.88;4.82;;;;;;;;;;5010665;28;20054;-71
2022/10/01 04:31:37;;;;;;;6.85;5.75;;;;;;;;;;5011045;28;20127;-71
2022/10/01 04:33:44;;;;;;;6.03;5.03;;;;;;;;;;4996904;28;20593;-71
2022/10/01 04:36:10;;;;;;;6.15;5.57;;;;;;;;;;5010326;28;20058;-71
2022/10/01 04:38:37;;;;;;;6.22;5.63;;;;;;;;;;5011208;28;20050;-72
2022/10/01 04:41:03;;;;;;;6.50;5.88;;;;;;;;;;5010698;28;20057;-72
2022/10/01 04:43:29;;;;;;;6.43;5.75;;;;;;;;;;5010283;28;20109;-71
2022/10/01 04:45:55;;;;;;;6.40;5.90;;;;;;;;;;5011039;28;20050;-72
2022/10/01 04:48:22;;;;;;;6.35;5.85;;;;;;;;;;5010149;28;20065;-72
2022/10/01 04:50:49;;;;;;;7.03;6.32;;;;;;;;;;5008958;28;20089;-71
2022/10/01 04:53:15;;;;;;;8.05;7.00;;;;;;;;;;5011147;28;20470;-72
2022/10/01 04:55:42;;;;;;;7.32;6.35;;;;;;;;;;5002457;28;20133;-71
2022/10/01 04:58:08;;;;;;;6.95;6.35;;;;;;;;;;5010996;28;20055;-71
2022/10/01 05:00:35;;;;;;;7.35;6.72;;;;;;;;;;5009232;28;20054;-72
2022/10/01 05:03:01;;;;;;;7.28;6.65;;;;;;;;;;5010418;28;20541;-71
2022/10/01 05:05:28;;;;;;;7.72;7.03;;;;;;;;;;5009757;28;20102;-71
2022/10/01 05:07:54;;;;;;;7.25;6.55;;;;;;;;;;5008942;28;20058;-71
2022/10/01 05:10:21;;;;;;;7.63;6.80;;;;;;;;;;5010831;28;20105;-71
2022/10/01 05:12:47;;;;;;;11.30;7.80;;;;;;;;;;5010047;28;20058;-72
2022/10/01 05:15:14;;;;;;;8.88;7.20;;;;;;;;;;5011056;28;20066;-71
2022/10/01 05:17:41;;;;;;;8.75;7.60;;;;;;;;;;5022992;28;20058;-71
2022/10/01 05:20:14;;;;;;;8.55;7.72;;;;;;;;;;5002164;28;20062;-71
2022/10/01 05:22:40;;;;;;;8.07;7.28;;;;;;;;;;5009970;28;20108;-71
2022/10/01 05:25:06;;;;;;;10.32;7.78;;;;;;;;;;5010965;28;20467;-71
2022/10/01 05:27:36;;;;;;;8.07;7.30;;;;;;;;;;5008545;28;20059;-71
2022/10/01 05:30:07;;;;;;;10.80;7.95;;;;;;;;;;5009754;28;20110;-71
2022/10/01 05:32:34;;;;;;;9.70;8.10;;;;;;;;;;5011300;28;20090;-71
2022/10/01 05:35:00;;;;;;;8.63;7.72;;;;;;;;;;5010806;28;20407;-71
2022/10/01 05:37:27;;;;;;;9.85;7.75;;;;;;;;;;5001949;28;20050;-71
2022/10/01 05:39:53;;;;;;;11.13;7.53;;;;;;;;;;5010063;28;20137;-71
2022/10/01 05:42:19;;;;;;;8.18;7.38;;;;;;;;;;5003493;28;20062;-71
2022/10/01 05:44:45;;;;;;;8.20;7.40;;;;;;;;;;5003093;28;20540;-71
2022/10/01 05:47:12;;;;;;;9.27;8.10;;;;;;;;;;5010588;28;20054;-71
2022/10/01 05:49:43;;;;;;;8.35;7.55;;;;;;;;;;5010138;28;20057;-72
2022/10/01 05:52:09;;;;;;;8.70;7.53;;;;;;;;;;5011401;28;20054;-72
2022/10/01 05:54:36;;;;;;;11.65;8.30;;;;;;;;;;5010631;28;20062;-71
2022/10/01 05:57:04;;;;;;;11.65;8.45;;;;;;;;;;5010722;28;21000;-71
2022/10/01 05:59:30;;;;;;;12.50;7.53;;;;;;;;;;5007019;28;20137;-71
2022/10/01 06:01:57;;;;;;;10.68;8.48;;;;;;;;;;5010372;28;20055;-71
2022/10/01 06:04:23;;;;;;;9.73;8.82;;;;;;;;;;5010835;28;20073;-71
2022/10/01 06:06:50;;;;;;;9.98;8.30;;;;;;;;;;5010645;28;20062;-71
2022/10/01 06:09:16;;;;;;;10.57;8.95;;;;;;;;;;5010628;28;20054;-71
2022/10/01 06:11:42;;;;;;;10.32;8.40;;;;;;;;;;5010093;28;20454;-71
2022/10/01 06:14:09;;;;;;;11.48;8.30;;;;;;;;;;5006743;28;20066;-71
2022/10/01 06:16:35;;;;;;;10.35;8.55;;;;;;;;;;5008374;28;20054;-71
2022/10/01 06:19:01;;;;;;;8.93;8.02;;;;;;;;;;5012789;28;20053;-71
2022/10/01 06:21:29;;;;;;;9.82;7.97;;;;;;;;;;5013721;28;20054;-70
2022/10/01 06:23:55;;;;;;;12.32;8.48;;;;;;;;;;5012949;28;20050;-71
2022/10/01 06:26:23;;;;;;;12.82;9.07;;;;;;;;;;5013672;28;20065;-71
2022/10/01 06:28:50;;;;;;;10.80;8.35;;;;;;;;;;5012262;28;20481;-71
2022/10/01 06:31:17;;;;;;;8.98;8.13;;;;;;;;;;5012999;28;20057;-70
2022/10/01 06:33:43;;;;;;;10.68;8.48;;;;;;;;;;5002308;28;20554;-71
2022/10/01 06:36:09;;;;;;;13.43;7.57;;;;;;;;;;4995722;28;20109;-71
2022/10/01 06:38:35;;;;;;;10.02;8.30;;;;;;;;;;5012052;28;20106;-71
2022/10/01 06:41:03;;;;;;;11.82;9.23;;;;;;;;;;5013372;28;20054;-71
2022/10/01 06:43:30;;;;;;;10.98;7.63;;;;;;;;;;5013229;28;20050;-71
2022/10/01 06:45:59;;;;;;;10.15;7.72;;;;;;;;;;5011716;28;20055;-71
2022/10/01 06:48:27;;;;;;;12.15;7.50;;;;;;;;;;5007775;28;20077;-70
2022/10/01 06:50:54;;;;;;;9.55;8.05;;;;;;;;;;5011852;28;20055;-71
2022/10/01 06:53:20;;;;;;;12.95;7.97;;;;;;;;;;5013158;28;20058;-71
2022/10/01 06:55:48;;;;;;;10.32;7.55;;;;;;;;;;5012461;28;20093;-70
2022/10/01 06:58:16;;;;;;;9.82;7.43;;;;;;;;;;5012651;28;20102;-71
2022/10/01 07:00:43;;;;;;;10.80;6.80;;;;;;;;;;5012445;28;20054;-70
2022/10/01 07:03:14;;;;;;;11.32;7.18;;;;;;;;;;5013428;28;20502;-71
2022/10/01 07:05:40;;;;;;;11.40;7.43;;;;;;;;;;5012147;28;20463;-71
2022/10/01 07:08:07;;;;;;;11.43;7.68;;;;;;;;;;4997310;28;20106;-71
2022/10/01 07:10:34;;;;;;;13.52;8.10;;;;;;;;;;5008156;28;20105;-71
2022/10/01 07:13:06;;;;;;;10.45;6.68;;;;;;;;;;5011792;28;20055;-71
2022/10/01 07:15:33;;;;;;;11.02;6.47;;;;;;;;;;5011539;28;20562;-71
2022/10/01 07:17:59;;;;;;;10.95;6.45;;;;;;;;;;5008261;28;20987;-70
2022/10/01 07:20:25;;;;;;;12.50;6.72;;;;;;;;;;5012901;28;20563;-70
2022/10/01 07:22:56;;;;;;;8.00;5.97;;;;;;;;;;5011556;28;20562;-71
2022/10/01 07:25:23;;;;;;;8.18;6.25;;;;;;;;;;5006420;28;20054;-71
2022/10/01 07:27:57;;;;;;;13.00;6.30;;;;;;;;;;5012401;28;20058;-72
2022/10/01 07:30:24;;;;;;;7.80;5.35;;;;;;;;;;5010566;28;20054;-72
2022/10/01 07:32:50;;;;;;;9.13;5.90;;;;;;;;;;5025850;28;20059;-72
2022/10/01 07:35:19;;;;;;;11.32;6.13;;;;;;;;;;5011674;28;20054;-72
2022/10/01 07:37:46;;;;;;;9.55;4.72;;;;;;;;;;5012817;28;20054;-71
2022/10/01 07:40:15;;;;;;;7.05;4.55;;;;;;;;;;5012702;28;20564;-72
2022/10/01 07:42:41;;;;;;;9.18;4.65;;;;;;;;;;5011025;28;20062;-71
2022/10/01 07:45:08;;;;;;;8.43;4.57;;;;;;;;;;5011455;28;20050;-72
2022/10/01 07:47:34;;;;;;;18.45;4.93;;;;;;;;;;5011732;28;20054;-73
2022/10/01 07:50:01;;;;;;;9.85;5.18;;;;;;;;;;5012321;28;20054;-72
2022/10/01 07:52:27;;;;;;;7.47;4.88;;;;;;;;;;5012920;28;20137;-72
2022/10/01 07:54:53;;;;;;;10.90;5.10;;;;;;;;;;5017034;28;20083;-72
2022/10/01 07:57:20;;;;;;;9.77;4.88;;;;;;;;;;5018253;28;20906;-72
2022/10/01 07:59:46;;;;;;;15.10;5.25;;;;;;;;;;4998119;28;20058;-72
2022/10/01 08:02:13;;;;;;;14.60;5.55;;;;;;;;;;5011424;28;20576;-72
2022/10/01 08:07:24;;;;;;;12.77;5.95;;;;;;;;;;5011797;28;20454;-72
2022/10/01 08:09:50;;;;;;;11.88;5.93;;;;;;;;;;5012327;28;20549;-72
2022/10/01 08:12:18;;;;;;;7.13;4.82;;;;;;;;;;5011423;28;20470;-73
2022/10/01 08:14:46;;;;;;;15.43;5.35;;;;;;;;;;5011049;28;20062;-72
2022/10/01 08:17:13;;;;;;;5.85;3.88;;;;;;;;;;5011353;28;20121;-72
2022/10/01 08:19:39;;;;;;;11.88;5.32;;;;;;;;;;5011788;28;20066;-73
2022/10/01 08:22:06;;;;;;;4.47;3.75;;;;;;;;;;5011691;28;20544;-73
2022/10/01 08:24:35;;;;;;;16.30;4.90;;;;;;;;;;5010214;28;20061;-74
2022/10/01 08:28:59;;;;;;;;;;;;;;;;;;5128644;27;20320;-72
2022/10/01 08:31:25;;;;;;;;;;;;;;;;;;5128280;27;47218;-72
2022/10/01 08:33:52;;;;;;;11.93;3.40;;;;;;;;;;5110279;27;43672;-72
2022/10/01 08:36:18;;;;;;;6.90;3.90;;;;;;;;;;5129041;27;20106;-72
2022/10/01 08:38:45;;;;;;;5.07;4.00;;;;;;;;;;5128330;27;20466;-72
2022/10/01 08:41:26;;;;;;;10.27;4.40;;;;;;;;;;5128972;27;21069;-72
2022/10/01 08:43:52;;;;;;;11.20;4.10;;;;;;;;;;5128584;27;20470;-72
2022/10/01 08:46:22;;;;;;;10.10;4.47;;;;;;;;;;5129054;27;20050;-72
2022/10/01 08:48:57;;;;;;;5.10;2.30;;;;;;;;;;5128552;27;20141;-71
2022/10/01 08:51:23;;;;;;;;;;;;;;;;;;5129122;27;20048;-71
2022/10/01 08:53:52;;;;;;;10.85;2.80;;;;;;;;;;5127530;27;44937;-71
2022/10/01 08:56:24;;;;;;;8.50;2.78;;;;;;;;;;5128719;27;20869;-71
2022/10/01 08:58:58;;;;;;;6.88;2.75;;;;;;;;;;5127069;27;20482;-70
2022/10/01 09:01:28;;;;;;;5.03;2.70;;;;;;;;;;5129277;27;20624;-72
2022/10/01 09:03:55;;;;;;;6.93;2.70;;;;;;;;;;5128606;27;20109;-72
2022/10/01 09:06:25;;;;;;;12.20;3.10;;;;;;;;;;5121691;27;20106;-72
2022/10/01 09:09:09;;;;;;;8.95;2.42;;;;;;;;;;5127374;27;20474;-71
2022/10/01 09:11:36;;;;;;;7.85;2.38;;;;;;;;;;5128201;27;20059;-72
2022/10/01 09:14:08;;;;;;;7.80;2.40;;;;;;;;;;5128700;27;20060;-72
2022/10/01 09:16:35;;;;;;;11.98;2.50;;;;;;;;;;5127356;27;20090;-71
2022/10/01 09:19:04;;;;;;;9.27;2.63;;;;;;;;;;5125856;27;20082;-71
2022/10/01 09:21:31;;;;;;;8.68;1.95;;;;;;;;;;5110326;27;20110;-71
2022/10/01 09:24:03;;;;;;;14.13;3.25;;;;;;;;;;5108671;27;20838;-69
2022/10/01 09:26:29;;;;;;;13.98;2.40;;;;;;;;;;5126819;27;20125;-70
2022/10/01 09:28:58;;;;;;;8.18;2.03;;;;;;;;;;5119547;27;20056;-70
2022/10/01 09:31:32;;;;;;;9.63;2.20;;;;;;;;;;5118085;27;20132;-70
2022/10/01 09:34:11;;;;;;;7.05;2.13;;;;;;;;;;5119221;27;20048;-70
2022/10/01 09:37:05;;;;;;;9.20;2.03;;;;;;;;;;5108854;27;20102;-71
2022/10/01 09:39:41;;;;;;;9.30;1.55;;;;;;;;;;5111299;27;20052;-71
2022/10/01 09:42:08;;;;;;;14.90;2.40;;;;;;;;;;5097971;28;20052;-70
2022/10/01 09:44:35;;;;;;;9.35;2.03;;;;;;;;;;5104440;28;20056;-70
2022/10/01 09:47:01;;;;;;;10.18;2.03;;;;;;;;;;5102650;28;20135;-70
2022/10/01 09:49:30;;;;;;;12.45;2.97;;;;;;;;;;5101751;27;20055;-70
2022/10/01 09:52:01;;;;;;;12.00;2.42;;;;;;;;;;5110722;27;20052;-71
2022/10/01 09:54:38;;;;;;;15.30;2.83;;;;;;;;;;5111078;27;20106;-71
2022/10/01 09:57:21;;;;;;;8.45;2.67;;;;;;;;;;5109557;27;20054;-70
2022/10/01 09:59:47;;;;;;;9.68;1.70;;;;;;;;;;5093990;28;20064;-70
2022/10/01 10:02:16;;;;;;;7.57;1.67;;;;;;;;;;5098745;28;20106;-71
2022/10/01 10:04:43;;;;;;;22.50;4.25;;;;;;;;;;5097706;27;20067;-71
2022/10/01 10:07:14;;;;;;;8.13;1.85;;;;;;;;;;5113103;27;20143;-71
2022/10/01 10:09:40;;;;;;;11.07;2.13;;;;;;;;;;5108865;27;20109;-70
2022/10/01 10:12:18;;;;;;;13.63;2.90;;;;;;;;;;5113229;27;20059;-71
2022/10/01 10:14:45;;;;;;;7.25;1.77;;;;;;;;;;5097383;28;20056;-70
2022/10/01 10:17:15;;;;;;;7.43;2.13;;;;;;;;;;5113300;27;20063;-71
2022/10/01 10:19:50;;;;;;;11.02;1.55;;;;;;;;;;5112797;27;20523;-70
2022/10/01 10:22:23;;;;;;;9.50;2.17;;;;;;;;;;5113334;27;20506;-70
2022/10/01 10:24:51;;;;;;;14.00;2.65;;;;;;;;;;5100860;28;20053;-70
2022/10/01 10:27:25;;;;;;;13.18;2.58;;;;;;;;;;5111075;27;20064;-73
2022/10/01 10:30:03;;;;;;;6.13;1.70;;;;;;;;;;5103017;27;20064;-71
2022/10/01 10:32:29;;;;;;;9.02;1.75;;;;;;;;;;5108522;27;20121;-70
2022/10/01 10:34:57;;;;;;;12.43;2.72;;;;;;;;;;5108266;28;20522;-71
2022/10/01 10:37:29;;;;;;;11.68;1.85;;;;;;;;;;5111005;28;20110;-70
2022/10/01 10:39:56;;;;;;;12.45;1.77;;;;;;;;;;5098010;28;20056;-70
2022/10/01 10:42:24;;;;;;;5.07;1.50;;;;;;;;;;5102318;27;20052;-70
2022/10/01 10:44:52;;;;;;;9.75;1.50;;;;;;;;;;5112681;28;20049;-70
2022/10/01 10:47:20;;;;;;;6.15;1.88;;;;;;;;;;5111866;27;20048;-71
2022/10/01 10:49:53;;;;;;;12.13;1.95;;;;;;;;;;5105962;27;20072;-71
2022/10/01 10:52:28;;;;;;;12.93;1.88;;;;;;;;;;5094444;28;20051;-70
2022/10/01 10:54:54;;;;;;;;;;;;;;;;;;5093290;28;20479;-70
2022/10/01 10:57:33;;;;;;;7.13;1.60;;;;;;;;;;5099092;28;42424;-70
2022/10/01 10:59:59;;;;;;;9.68;1.27;;;;;;;;;;5105399;28;20056;-71
2022/10/01 11:02:30;;;;;;;7.15;1.38;;;;;;;;;;5111034;28;20048;-70
2022/10/01 11:04:58;;;;;;;6.68;1.08;;;;;;;;;;5112066;28;20060;-71
2022/10/01 11:07:25;;;;;;;6.93;2.22;;;;;;;;;;5107904;27;20051;-70
2022/10/01 11:09:51;;;;;;;7.47;2.20;;;;;;;;;;5110430;28;20056;-71
2022/10/01 11:12:23;;;;;;;7.32;2.25;;;;;;;;;;5110261;27;20101;-71
2022/10/01 11:14:54;;;;;;;2.50;1.00;;;;;;;;;;5110199;27;20053;-71
2022/10/01 11:17:29;;;;;;;6.18;1.50;;;;;;;;;;5103038;27;20507;-71
2022/10/01 11:20:14;;;;;;;7.68;1.70;;;;;;;;;;5107349;27;20111;-71
2022/10/01 11:22:46;;;;;;;8.00;1.30;;;;;;;;;;5099495;27;20504;-70
2022/10/01 11:25:18;;;;;;;8.90;1.85;;;;;;;;;;5105554;28;20056;-71
2022/10/01 11:27:44;;;;;;;11.52;1.35;;;;;;;;;;5109186;27;20055;-71
2022/10/01 11:30:18;;;;;;;7.40;1.70;;;;;;;;;;5114300;27;20052;-70
2022/10/01 11:32:59;;;;;;;10.50;1.67;;;;;;;;;;5097549;27;20196;-70
2022/10/01 11:35:36;;;;;;;15.10;2.35;;;;;;;;;;5100192;28;20052;-70
2022/10/01 11:38:03;;;;;;;7.70;1.88;;;;;;;;;;5108585;28;20087;-70
2022/10/01 11:40:40;;;;;;;7.60;1.90;;;;;;;;;;5105718;27;20114;-71
2022/10/01 11:43:13;;;;;;;9.05;1.95;;;;;;;;;;5102737;27;20086;-71
2022/10/01 11:45:43;;;;;;;9.65;1.55;;;;;;;;;;5106316;28;20489;-72
2022/10/01 11:48:12;;;;;;;10.70;1.92;;;;;;;;;;5106528;27;20060;-71
2022/10/01 11:50:45;;;;;;;10.07;1.77;;;;;;;;;;5102743;27;20117;-70
2022/10/01 11:53:14;;;;;;;12.07;1.52;;;;;;;;;;5109421;28;20048;-69
2022/10/01 11:58:51;;;;;;;11.35;2.00;;;;;;;;;;5099942;28;20056;-70
2022/10/01 12:01:23;;;;;;;6.03;1.45;;;;;;;;;;5112006;27;20048;-71
2022/10/01 12:03:53;;;;;;;10.93;1.33;;;;;;;;;;5109435;27;20569;-71
2022/10/01 12:06:22;;;;;;;7.85;2.45;;;;;;;;;;5095576;28;20626;-71
2022/10/01 12:09:04;;;;;;;8.82;1.65;;;;;;;;;;5103454;27;20142;-71
2022/10/01 12:11:40;;;;;;;9.73;3.25;;;;;;;;;;5106406;28;20044;-71
2022/10/01 12:14:11;;;;;;;6.70;1.58;;;;;;;;;;5108516;27;20056;-71
2022/10/01 12:16:46;;;;;;;6.93;1.35;;;;;;;;;;5110734;28;20048;-71
2022/10/01 12:19:21;;;;;;;9.55;1.60;;;;;;;;;;5111504;27;20056;-71
2022/10/01 12:21:50;;;;;;;3.22;1.27;;;;;;;;;;5095212;27;20052;-72
2022/10/01 12:24:19;;;;;;;15.13;2.35;;;;;;;;;;5099644;28;20044;-71
2022/10/01 12:26:55;;;;;;;7.13;1.92;;;;;;;;;;5102696;27;20052;-71
2022/10/01 12:29:40;;;;;;;9.70;2.13;;;;;;;;;;5106230;27;20059;-70
2022/10/01 12:32:15;;;;;;;12.07;1.73;;;;;;;;;;5107485;28;20051;-71
2022/10/01 12:34:41;;;;;;;8.85;1.35;;;;;;;;;;5111938;27;20052;-71
2022/10/01 12:37:16;;;;;;;10.70;2.40;;;;;;;;;;5111625;27;20048;-70
2022/10/01 12:40:09;;;;;;;8.50;1.60;;;;;;;;;;5111939;27;20129;-70
2022/10/01 12:42:41;;;;;;;10.30;2.55;;;;;;;;;;5108509;28;20465;-71
2022/10/01 12:45:27;;;;;;;11.25;1.52;;;;;;;;;;5108305;27;20464;-70
2022/10/01 12:48:15;;;;;;;4.40;1.30;;;;;;;;;;5098482;27;20897;-70
2022/10/01 12:50:49;;;;;;;6.20;1.30;;;;;;;;;;5111451;27;20101;-71
2022/10/01 12:53:27;;;;;;;6.45;1.33;;;;;;;;;;5108796;27;20110;-71
2022/10/01 12:56:14;;;;;;;9.88;1.83;;;;;;;;;;5110965;27;20106;-71
2022/10/01 12:58:42;;;;;;;7.65;1.73;;;;;;;;;;5106339;27;20052;-71
2022/10/01 13:01:34;;;;;;;6.57;1.63;;;;;;;;;;5107128;27;20055;-71
2022/10/01 13:04:16;;;;;;;9.57;1.75;;;;;;;;;;5096131;27;20056;-72
2022/10/01 13:06:54;;;;;;;12.18;2.10;;;;;;;;;;5098590;27;20063;-71
2022/10/01 13:09:33;;;;;;;9.80;2.00;;;;;;;;;;5109364;28;20691;-72
2022/10/01 13:12:27;;;;;;;9.32;1.50;;;;;;;;;;5107699;27;20110;-71
2022/10/01 13:14:54;;;;;;;7.70;2.72;;;;;;;;;;5104651;28;20087;-71
2022/10/01 13:17:23;;;;;;;11.88;1.85;;;;;;;;;;5107246;27;20106;-72
2022/10/01 13:20:14;;;;;;;9.85;1.77;;;;;;;;;;5114650;28;20060;-71
2022/10/01 13:22:51;;;;;;;9.18;1.90;;;;;;;;;;5103957;28;20565;-71
2022/10/01 13:25:21;;;;;;;8.98;1.55;;;;;;;;;;5104435;27;20061;-70
2022/10/01 13:28:01;;;;;;;10.00;2.03;;;;;;;;;;5109921;28;20503;-71
2022/10/01 13:30:33;;;;;;;13.05;2.42;;;;;;;;;;5113194;27;20052;-71
2022/10/01 13:32:59;;;;;;;7.00;2.38;;;;;;;;;;5114323;27;20052;-71
2022/10/01 13:35:29;;;;;;;10.30;1.80;;;;;;;;;;5100745;27;20056;-71
2022/10/01 13:38:12;;;;;;;10.30;2.17;;;;;;;;;;5100362;28;20511;-71
2022/10/01 13:40:38;;;;;;;12.45;1.95;;;;;;;;;;5111384;28;20141;-71
2022/10/01 13:43:15;;;;;;;13.00;1.80;;;;;;;;;;5114957;27;20056;-71
2022/10/01 13:45:43;;;;;;;4.60;1.20;;;;;;;;;;5114001;27;20056;-70
2022/10/01 13:48:09;;;;;;;8.57;1.70;;;;;;;;;;5107641;27;20451;-71
2022/10/01 13:50:38;;;;;;;10.07;1.85;;;;;;;;;;5102895;27;20102;-70
2022/10/01 13:53:16;;;;;;;9.10;2.17;;;;;;;;;;5114182;27;20051;-71
2022/10/01 13:55:43;;;;;;;7.15;1.88;;;;;;;;;;5109219;28;20527;-71
2022/10/01 13:58:22;;;;;;;12.57;2.40;;;;;;;;;;5113743;27;20548;-71
2022/10/01 14:00:53;;;;;;;6.60;1.55;;;;;;;;;;5112767;28;20060;-71
2022/10/01 14:03:32;;;;;;;10.85;1.80;;;;;;;;;;5104991;27;20463;-71
2022/10/01 14:06:00;;;;;;;8.73;2.83;;;;;;;;;;5112697;28;20504;-71
2022/10/01 14:08:36;;;;;;;10.43;1.52;;;;;;;;;;5113756;27;20056;-71
2022/10/01 14:17:09;;;;;;;6.30;2.03;;;;;;;;;;5107610;27;20049;-71
2022/10/01 14:19:35;;;;;;;12.90;1.70;;;;;;;;;;5109371;27;20063;-70
2022/10/01 14:22:22;;;;;;;6.30;1.38;;;;;;;;;;5105971;27;20068;-70
2022/10/01 14:25:02;;;;;;;6.38;1.58;;;;;;;;;;5108463;27;20091;-70
2022/10/01 14:27:32;;;;;;;6.72;1.38;;;;;;;;;;5112242;27;20574;-72
2022/10/01 14:30:06;;;;;;;13.35;2.10;;;;;;;;;;5103360;28;20063;-71
2022/10/01 14:32:32;;;;;;;14.82;3.58;;;;;;;;;;5113807;27;20052;-69
2022/10/01 14:34:58;;;;;;;11.05;2.53;;;;;;;;;;5112701;27;20060;-70
2022/10/01 14:37:25;;;;;;;11.57;2.33;;;;;;;;;;5111204;27;20057;-70
2022/10/01 14:40:01;;;;;;;8.60;1.65;;;;;;;;;;5112653;27;20056;-70
2022/10/01 14:42:27;;;;;;;7.22;1.92;;;;;;;;;;5112412;27;20056;-69
2022/10/01 14:44:53;;;;;;;7.45;2.45;;;;;;;;;;5098884;27;20048;-69
2022/10/01 14:47:21;;;;;;;6.60;1.95;;;;;;;;;;5102485;27;20056;-69
2022/10/01 14:49:48;;;;;;;7.30;2.15;;;;;;;;;;5095014;28;20052;-68
2022/10/01 14:52:22;;;;;;;7.00;1.42;;;;;;;;;;5113564;27;20496;-70
2022/10/01 14:54:48;;;;;;;8.27;1.90;;;;;;;;;;5110872;27;20109;-69
2022/10/01 14:57:17;;;;;;;6.75;1.48;;;;;;;;;;5112737;27;20051;-70
2022/10/01 14:59:45;;;;;;;6.97;1.83;;;;;;;;;;5109489;28;20109;-69
2022/10/01 15:02:16;;;;;;;10.23;2.28;;;;;;;;;;5110993;27;20065;-69
2022/10/01 15:04:46;;;;;;;10.30;1.63;;;;;;;;;;5113340;27;20101;-69
2022/10/01 15:07:14;;;;;;;13.13;2.25;;;;;;;;;;5108727;27;20052;-70
2022/10/01 15:09:41;;;;;;;9.25;2.20;;;;;;;;;;5112527;27;20056;-69